Columbus Metropolitan Airport
KCSG : now visible

Airfield :











YOU CAN JOIN US ON...

 
LOGIN :

Register | Disclaimer

   EN    FR    IT 

 









Legend :    VFR   Marginal VFR   IFR   Intensive IFR   Very Intensive IFR
Visi :
Ceiling :
>= 8 km
>= 3000ft
5 to 8 km
1000 to 3000 ft
1500m to 5 km
500 to 1000 ft
800 to 1500m
200 to 500 ft
< 800m
< 200 ft
Symbols :   Thunderstorms  Fog  Heavy snow  Heavy precipitations  Wind > 20 kt






- Airport Elevation : 397 ft
- IATA code : CSG


KCSG - Columbus Metropolitan

CURRENT METAR :
  • 171451Z 06003KT 10SM SCT017 BKN024 13/06 A3007 RMK AO2 SLP181 T01330056 50004

EXPIRED METARs :
  • 171351Z 05004KT 10SM OVC024 12/05 A3008 RMK AO2 SLP183 T01170050
  • 171317Z AUTO 03003KT 10SM BKN022 11/06 A3008 RMK AO2 T01110061
  • 171251Z AUTO 00000KT 10SM SCT030 11/06 A3008 RMK AO2 SLP183 T01110061
  • 171151Z AUTO 00000KT 10SM OVC032 11/06 A3006 RMK AO2 SLP177 T01110056 10111 20100 51008

TAF KCSG
Valid from the 17 at 13:00 until the 18 at 12:00 UTC


171323Z 1713/1812 02004KT P6SM BKN035
TEMPO 1713/1715 BKN025
FM171800 36004KT P6SM SCT045 SCT250
FM180000 VRB03KT P6SM FEW050 SCT250
FM180500 VRB03KT P6SM BKN040
FM180900 27004KT P6SM BKN020 OVC035



MET'MAP, your aeronautical weather chart ! - Copyright ORBIFLY December 2007 - Disclaimer

ORBIFLY MET'MAP TEAM :

Programming & Development : Alexandra Zaïnal
Concept & Development : Baudouin d'Aumeries
Co-Development & Prog : Marc-Olivier Méhu
Technical & hardware support : Manuel Goepfert

Contact : metmap@orbifly.com




SOURCES & CREDITS :

   NOAA       Earth
Advisory